Página principal
METAR-TAF:

METAR-TAF

Aeroportos :

Brooks Field

Marshall, Michigan, Estados Unidos

latitude: 42-15-04N, longitude: 084-57-20W, altura: 287 m

Observação actual do tempo

O boletim foi feito há 9 minutos, às 20:55 UTC
Vento calmo
Temperatura 31°C
Humidade 40%
Pressão 1012 hPa
Visibilidade: 16.1 km
Nuvens fragmentadasa uma altura de 7000 ft
Nuvens fragmentadasa uma altura de 10000 ft

METAR: KRMY 272055Z AUTO 00000KT 10SM BKN070 BKN100 31/16 A2988 RMK AO2 T03090155

Hora: 17:04 (21:04 UTC)


TAF: em falta

Observações e previsões do tempo de mais de 4000 aeroportos (mensagens METAR e TAF).

As estações disponíveis são os pontos amarelos e vermelhos sobre o mapa.

Mova o rato sobre o mapa para ver o nome da estação.

Depois clique no ponto para visualizar as observações e previsões meteorológicas.

Para alterar o mapa : clique nos botões verdes com uma cruz preta para aumentar o zoom; no botão verde com uma pitada de zoom; ou nas setas verdes para mapas adjacentes.


METAR-TAF: